Time;durP1;ratioP1;P1;durP2;ratioP2;P2;SDS_P1;SDS_P2;PMS_P1;PMS_P2;Temp;Humidity;BMP_temperature;BMP_pressure;BME280_temperature;BME280_humidity;BME280_pressure;Samples;Min_cycle;Max_cycle;Signal;HPM_P1;HPM_P2
2022/01/25 00:29:13;;;;;;;4.03;3.67;;;18.00;56.70;;;;;;10530214;28;20037;-59
2022/01/25 00:34:14;;;;;;;4.77;4.27;;;18.00;56.50;;;;;;10514433;28;20044;-59
2022/01/25 00:39:14;;;;;;;4.82;4.25;;;18.10;56.40;;;;;;10495054;28;20282;-58
2022/01/25 00:44:16;;;;;;;4.40;4.00;;;18.00;56.30;;;;;;10475456;28;20365;-58
2022/01/25 00:49:26;;;;;;;4.13;3.72;;;18.10;56.40;;;;;;10491892;28;20029;-59
2022/01/25 00:54:29;;;;;;;4.35;3.95;;;18.00;56.40;;;;;;10496525;28;20547;-58
2022/01/25 00:59:31;;;;;;;4.68;3.90;;;18.00;56.40;;;;;;10478555;28;20074;-58
2022/01/25 01:04:33;;;;;;;4.47;4.05;;;18.00;56.50;;;;;;10491095;28;20025;-58
2022/01/25 01:09:37;;;;;;;4.90;4.40;;;18.00;56.50;;;;;;10486203;28;20097;-59
2022/01/25 01:51:19;;;;;;;5.95;4.63;;;18.00;56.50;;;;;;10519930;28;20114;-58
2022/01/25 01:56:20;;;;;;;4.20;3.80;;;18.00;56.40;;;;;;10500964;28;20113;-58
2022/01/25 02:01:21;;;;;;;4.80;4.13;;;18.00;56.40;;;;;;10484582;28;20103;-58
2022/01/25 02:06:22;;;;;;;4.78;4.30;;;17.90;56.30;;;;;;10483323;28;20071;-59
2022/01/25 02:11:24;;;;;;;4.63;4.18;;;18.00;56.40;;;;;;10476860;28;20037;-60
2022/01/25 02:16:44;;;;;;;4.80;4.40;;;18.00;56.30;;;;;;10499508;28;20044;-59
2022/01/25 02:27:05;;;;;;;4.80;4.40;;;18.00;56.30;;;;;;10509726;28;20045;-59
2022/01/25 02:32:08;;;;;;;5.68;4.28;;;18.10;57.50;;;;;;10501369;28;20043;-58
2022/01/25 02:37:13;;;;;;;4.75;4.35;;;18.10;58.50;;;;;;10507314;28;20392;-59
2022/01/25 02:42:16;;;;;;;5.45;4.80;;;18.00;58.70;;;;;;10501507;28;20078;-60
2022/01/25 02:52:36;;;;;;;6.20;4.65;;;18.10;58.80;;;;;;10515285;28;20064;-60
2022/01/25 02:57:37;;;;;;;5.50;4.28;;;18.00;58.80;;;;;;10499417;28;20040;-58
2022/01/25 03:02:38;;;;;;;5.00;4.50;;;18.00;58.70;;;;;;10519399;28;20534;-59
2022/01/25 03:07:40;;;;;;;5.05;4.55;;;18.00;58.90;;;;;;10508822;28;20042;-57
2022/01/25 03:12:47;;;;;;;4.85;4.35;;;18.00;58.70;;;;;;10482108;28;20516;-58
2022/01/25 03:17:55;;;;;;;5.60;5.10;;;18.00;58.70;;;;;;10496634;28;20033;-59
2022/01/25 03:22:59;;;;;;;4.82;4.35;;;18.10;58.70;;;;;;10495022;28;20020;-60
2022/01/25 03:28:00;;;;;;;5.20;4.47;;;18.00;58.60;;;;;;10481370;28;20129;-59
2022/01/25 03:33:01;;;;;;;5.82;4.72;;;18.00;58.60;;;;;;10494800;28;20064;-58
2022/01/25 03:38:01;;;;;;;5.07;4.65;;;18.00;58.50;;;;;;10494736;28;20115;-59
2022/01/25 03:43:05;;;;;;;5.20;4.70;;;18.00;58.40;;;;;;10479003;28;20028;-59
2022/01/25 03:53:15;;;;;;;5.20;4.13;;;18.00;58.20;;;;;;10479221;28;20592;-59
2022/01/25 03:58:16;;;;;;;5.72;5.03;;;18.00;58.10;;;;;;10478551;28;20090;-59
2022/01/25 04:03:28;;;;;;;5.25;4.75;;;18.00;58.00;;;;;;10487884;28;20106;-59
2022/01/25 04:08:29;;;;;;;5.30;4.80;;;18.00;58.00;;;;;;10538484;28;20366;-59
2022/01/25 04:13:30;;;;;;;5.03;4.28;;;18.00;58.60;;;;;;10511721;28;20461;-58
2022/01/25 04:18:36;;;;;;;5.38;4.45;;;18.00;57.90;;;;;;10476551;28;20118;-59
2022/01/25 04:28:55;;;;;;;6.10;5.38;;;18.00;57.90;;;;;;10482756;28;20456;-59
2022/01/25 04:49:57;;;;;;;4.97;4.47;;;17.90;57.80;;;;;;10516927;28;20472;-59
2022/01/25 04:55:11;;;;;;;5.50;5.00;;;17.90;57.80;;;;;;10484057;28;20020;-59
2022/01/25 05:00:19;;;;;;;6.95;5.93;;;17.90;57.70;;;;;;10497512;28;20020;-59
2022/01/25 05:05:29;;;;;;;7.32;5.30;;;17.90;57.60;;;;;;10490192;28;20032;-59
2022/01/25 05:10:34;;;;;;;5.10;4.60;;;17.80;57.70;;;;;;10504099;28;20461;-59
2022/01/25 05:26:04;;;;;;;6.20;5.60;;;17.80;57.40;;;;;;10493542;28;20067;-59
2022/01/25 05:31:05;;;;;;;5.82;5.25;;;17.80;57.40;;;;;;10481141;28;20115;-58
2022/01/25 05:36:05;;;;;;;5.63;5.13;;;17.90;57.40;;;;;;10502047;28;20044;-58
2022/01/25 05:41:06;;;;;;;6.22;5.63;;;17.90;57.40;;;;;;10490800;28;20412;-59
2022/01/25 05:51:11;;;;;;;7.45;6.63;;;17.90;57.30;;;;;;10508249;28;20068;-59
2022/01/25 05:56:11;;;;;;;9.75;5.78;;;17.90;57.20;;;;;;10492679;28;20499;-56
2022/01/25 06:01:12;;;;;;;10.70;6.65;;;17.90;57.40;;;;;;10521929;28;20025;-57
2022/01/25 06:06:13;;;;;;;16.23;7.30;;;17.90;57.40;;;;;;10509911;28;20024;-58
2022/01/25 06:11:14;;;;;;;16.00;6.93;;;17.90;58.80;;;;;;10496894;28;20032;-60
2022/01/25 06:16:14;;;;;;;11.05;6.43;;;17.90;59.70;;;;;;10501450;28;20120;-59
2022/01/25 06:21:15;;;;;;;9.23;6.97;;;17.90;60.20;;;;;;10526448;28;20541;-59
2022/01/25 06:26:17;;;;;;;9.95;6.10;;;18.10;59.00;;;;;;10518049;28;20055;-61
2022/01/25 06:31:19;;;;;;;16.60;6.95;;;18.20;59.70;;;;;;10512337;28;20518;-58
2022/01/25 06:36:19;;;;;;;10.88;7.05;;;18.10;59.80;;;;;;10520238;28;20047;-60
2022/01/25 06:41:20;;;;;;;12.35;7.32;;;18.10;60.10;;;;;;10496309;28;20385;-59
2022/01/25 06:46:21;;;;;;;15.48;7.38;;;18.10;59.00;;;;;;10524225;28;20035;-58
2022/01/25 06:51:21;;;;;;;11.70;7.22;;;18.00;59.10;;;;;;10474544;28;20024;-56
2022/01/25 06:56:22;;;;;;;14.63;8.57;;;17.90;59.50;;;;;;10499719;28;20028;-55
2022/01/25 07:01:23;;;;;;;14.43;8.38;;;17.90;59.20;;;;;;10533064;28;20035;-57
2022/01/25 07:06:24;;;;;;;14.93;8.30;;;17.90;58.80;;;;;;10506333;28;20032;-58
2022/01/25 07:11:24;;;;;;;12.02;7.97;;;17.90;58.60;;;;;;10511423;28;20114;-57
2022/01/25 07:16:26;;;;;;;16.95;9.52;;;17.80;58.50;;;;;;10500574;28;20459;-57
2022/01/25 07:21:26;;;;;;;15.27;10.75;;;17.70;58.60;;;;;;10508568;28;20033;-56
2022/01/25 07:26:27;;;;;;;14.35;11.05;;;17.80;58.20;;;;;;10496977;28;20462;-56
2022/01/25 07:31:28;;;;;;;12.40;9.75;;;17.90;57.70;;;;;;10481261;28;20028;-56
2022/01/25 07:36:29;;;;;;;15.80;10.32;;;17.90;57.60;;;;;;10495083;28;20119;-56
2022/01/25 07:41:29;;;;;;;19.13;10.43;;;17.80;57.50;;;;;;10503608;28;20029;-56
2022/01/25 07:46:30;;;;;;;15.00;10.10;;;17.90;57.40;;;;;;10483548;28;20036;-57
2022/01/25 07:51:32;;;;;;;17.50;10.43;;;17.90;57.80;;;;;;10490777;28;20028;-59
2022/01/25 07:56:33;;;;;;;16.60;11.35;;;17.90;57.80;;;;;;10499112;28;20482;-57
2022/01/25 08:01:34;;;;;;;12.90;10.90;;;17.90;58.00;;;;;;10517166;28;20034;-58
2022/01/25 08:06:36;;;;;;;15.13;10.23;;;17.80;58.30;;;;;;10497190;28;20032;-58
2022/01/25 08:11:37;;;;;;;14.30;10.55;;;17.70;58.70;;;;;;10490447;28;20506;-59
2022/01/25 08:16:40;;;;;;;14.70;9.98;;;17.70;58.80;;;;;;10494843;28;20082;-58
2022/01/25 08:21:42;;;;;;;14.90;9.43;;;17.70;59.20;;;;;;10490139;28;20502;-57
2022/01/25 08:26:45;;;;;;;13.55;10.05;;;17.80;58.30;;;;;;10506619;28;20074;-58
2022/01/25 08:31:46;;;;;;;18.02;11.05;;;17.70;57.70;;;;;;10516117;28;20721;-58
2022/01/25 08:36:47;;;;;;;11.95;8.57;;;17.70;57.60;;;;;;10524929;28;20043;-59
2022/01/25 08:41:48;;;;;;;13.10;9.40;;;17.80;57.50;;;;;;10516808;28;20031;-59
2022/01/25 08:46:48;;;;;;;13.00;10.23;;;17.90;57.40;;;;;;10503953;28;20444;-58
2022/01/25 08:51:49;;;;;;;12.43;10.02;;;17.80;56.90;;;;;;10536718;28;20035;-58
2022/01/25 08:56:50;;;;;;;12.50;10.27;;;17.90;56.70;;;;;;10502741;28;20035;-57
2022/01/25 09:01:51;;;;;;;12.57;11.25;;;17.90;56.70;;;;;;10513869;28;20477;-57
2022/01/25 09:06:51;;;;;;;12.05;10.10;;;17.80;56.80;;;;;;10505765;28;20087;-57
2022/01/25 09:11:52;;;;;;;12.15;9.80;;;17.80;56.80;;;;;;10509037;28;20376;-58
2022/01/25 09:16:53;;;;;;;13.25;11.02;;;17.80;56.60;;;;;;10507709;28;20035;-58
2022/01/25 09:21:54;;;;;;;13.90;10.05;;;17.80;56.60;;;;;;10484238;28;20025;-55
2022/01/25 09:26:54;;;;;;;11.30;10.10;;;17.80;56.60;;;;;;10541763;28;20032;-55
2022/01/25 09:31:55;;;;;;;14.15;10.45;;;17.80;57.00;;;;;;10504969;28;20032;-55
2022/01/25 09:36:56;;;;;;;10.95;9.70;;;17.80;56.50;;;;;;10434865;28;20056;-55
2022/01/25 09:41:57;;;;;;;12.35;10.70;;;17.70;56.40;;;;;;10439868;28;20032;-56
2022/01/25 09:46:57;;;;;;;11.23;10.02;;;17.80;56.40;;;;;;10428135;28;20124;-58
2022/01/25 09:52:02;;;;;;;13.00;11.07;;;17.80;56.30;;;;;;10431364;28;20108;-56
2022/01/25 09:57:05;;;;;;;10.40;9.38;;;17.80;56.20;;;;;;10446793;28;20041;-56
2022/01/25 10:02:07;;;;;;;11.50;10.30;;;17.90;56.10;;;;;;10433250;28;20355;-56
2022/01/25 10:07:10;;;;;;;12.65;8.43;;;17.80;56.10;;;;;;10460158;28;20055;-56
2022/01/25 10:12:25;;;;;;;11.30;10.07;;;17.90;55.90;;;;;;10430253;28;20037;-56
2022/01/25 10:17:31;;;;;;;11.15;9.50;;;17.80;55.90;;;;;;10431591;28;20515;-56
2022/01/25 10:22:43;;;;;;;10.48;9.48;;;17.80;55.90;;;;;;10428406;28;20029;-55
2022/01/25 10:28:03;;;;;;;10.52;9.07;;;17.80;55.80;;;;;;10428496;28;20065;-55
2022/01/25 10:33:26;;;;;;;11.65;10.45;;;17.80;55.80;;;;;;10459716;28;20503;-55
2022/01/25 10:38:34;;;;;;;10.60;9.60;;;17.80;55.80;;;;;;10501417;28;20036;-58
2022/01/25 10:43:37;;;;;;;12.25;10.77;;;17.80;55.70;;;;;;10467086;28;20509;-57
2022/01/25 10:48:41;;;;;;;11.73;10.38;;;17.80;55.70;;;;;;10506277;28;20080;-58
2022/01/25 10:53:42;;;;;;;10.35;9.27;;;17.90;55.50;;;;;;10499569;28;20039;-56
2022/01/25 10:58:43;;;;;;;11.68;9.48;;;17.90;55.40;;;;;;10482997;28;20041;-58
2022/01/25 11:03:44;;;;;;;10.65;9.52;;;17.90;55.10;;;;;;10521810;28;20497;-58
2022/01/25 11:08:49;;;;;;;13.50;10.88;;;17.90;55.10;;;;;;10515279;28;20032;-58
2022/01/25 11:13:52;;;;;;;10.68;9.57;;;17.90;55.30;;;;;;10499336;28;20349;-58
2022/01/25 11:18:53;;;;;;;9.85;8.57;;;17.90;55.00;;;;;;10494654;28;20040;-58
2022/01/25 11:23:54;;;;;;;10.52;8.95;;;18.00;55.70;;;;;;10499521;28;20447;-55
2022/01/25 11:28:56;;;;;;;9.85;8.85;;;18.00;55.90;;;;;;10494449;28;20033;-55
2022/01/25 11:33:59;;;;;;;9.45;8.45;;;18.00;55.70;;;;;;10475748;28;20040;-55
2022/01/25 11:38:59;;;;;;;11.23;8.20;;;18.10;55.50;;;;;;10492289;28;20035;-55
2022/01/25 11:44:16;;;;;;;11.50;9.18;;;18.00;55.60;;;;;;10500069;28;20111;-55
2022/01/25 11:49:22;;;;;;;9.30;8.38;;;17.90;55.90;;;;;;10511432;28;20032;-54
2022/01/25 11:54:22;;;;;;;11.13;9.13;;;18.00;55.80;;;;;;10519012;28;20442;-56
2022/01/25 11:59:37;;;;;;;10.60;9.27;;;17.90;55.80;;;;;;10509308;28;20028;-56
2022/01/25 12:04:43;;;;;;;11.07;9.32;;;17.80;55.80;;;;;;10494194;28;20384;-55
2022/01/25 12:09:51;;;;;;;10.30;8.70;;;17.90;55.90;;;;;;10489527;28;20039;-55
2022/01/25 12:14:55;;;;;;;9.15;8.10;;;18.00;55.50;;;;;;10488110;28;20073;-55
2022/01/25 12:20:03;;;;;;;10.63;8.90;;;18.00;55.40;;;;;;10513556;28;20036;-56
2022/01/25 12:30:25;;;;;;;;;;;18.00;55.40;;;;;;10502857;28;20042;-57
2022/01/25 12:35:54;;;;;;;9.85;8.82;;;18.00;55.20;;;;;;10520666;28;19916;-55
2022/01/25 12:41:17;;;;;;;10.30;8.98;;;18.00;55.20;;;;;;10499819;28;20464;-56
2022/01/25 12:46:26;;;;;;;9.98;9.00;;;18.00;55.30;;;;;;10502549;28;20016;-56
2022/01/25 12:51:32;;;;;;;9.25;8.25;;;17.90;55.40;;;;;;10516909;28;20020;-54
2022/01/25 12:56:43;;;;;;;9.13;8.25;;;17.90;55.60;;;;;;10501180;28;20036;-56
2022/01/25 13:01:45;;;;;;;10.43;9.32;;;17.90;55.80;;;;;;10504137;28;20471;-56
2022/01/25 13:06:51;;;;;;;9.70;8.70;;;18.00;55.50;;;;;;10494316;28;20040;-56
2022/01/25 13:17:14;;;;;;;10.23;9.10;;;17.90;55.90;;;;;;10475831;28;20116;-54
2022/01/25 13:22:35;;;;;;;9.20;8.30;;;17.90;55.60;;;;;;10514194;28;20024;-56
2022/01/25 13:27:47;;;;;;;13.77;9.77;;;17.80;55.60;;;;;;10532338;28;20063;-57
2022/01/25 13:32:51;;;;;;;14.55;9.88;;;18.00;55.90;;;;;;10504328;28;20391;-57
2022/01/25 13:38:06;;;;;;;18.48;10.55;;;17.90;55.80;;;;;;10492275;28;20060;-57
2022/01/25 13:43:32;;;;;;;14.77;10.70;;;17.90;55.90;;;;;;10521008;28;20031;-57
2022/01/25 13:48:34;;;;;;;15.52;10.10;;;18.10;56.00;;;;;;10514767;28;20154;-56
2022/01/25 13:53:37;;;;;;;13.20;9.32;;;18.10;55.90;;;;;;10490740;28;20029;-58
2022/01/25 13:58:41;;;;;;;14.50;9.02;;;18.00;55.80;;;;;;10515545;28;20476;-57
2022/01/25 14:03:58;;;;;;;15.20;9.82;;;18.00;55.90;;;;;;10487961;28;20035;-56
2022/01/25 14:09:07;;;;;;;12.85;9.80;;;18.00;55.70;;;;;;10495360;28;20112;-57
2022/01/25 14:25:06;;;;;;;21.83;11.88;;;18.00;55.90;;;;;;10512611;28;20035;-58
2022/01/25 14:30:07;;;;;;;18.63;10.88;;;18.00;55.80;;;;;;10541951;28;20077;-57
2022/01/25 14:35:12;;;;;;;20.38;12.25;;;18.00;55.80;;;;;;10495975;28;20044;-57
2022/01/25 14:40:15;;;;;;;32.72;15.10;;;18.00;55.20;;;;;;10503254;28;20086;-57
2022/01/25 14:45:21;;;;;;;25.60;14.15;;;18.00;55.30;;;;;;10494785;28;20036;-59
2022/01/25 14:50:25;;;;;;;30.50;16.48;;;17.90;55.90;;;;;;10501110;28;20396;-59
2022/01/25 14:55:26;;;;;;;31.67;13.80;;;18.00;55.90;;;;;;10505647;28;20040;-60
2022/01/25 15:00:27;;;;;;;33.03;15.70;;;17.90;56.40;;;;;;10526818;28;20325;-58
2022/01/25 15:05:27;;;;;;;26.88;12.32;;;18.10;56.30;;;;;;10496148;28;20032;-58
2022/01/25 15:10:32;;;;;;;26.55;13.43;;;18.10;56.70;;;;;;10500598;28;20500;-59
2022/01/25 15:15:54;;;;;;;25.05;13.45;;;18.00;56.60;;;;;;10501146;28;20024;-59
2022/01/25 15:20:58;;;;;;;19.95;10.43;;;17.90;56.70;;;;;;10519666;28;20391;-58
2022/01/25 15:26:11;;;;;;;20.35;11.98;;;18.00;56.70;;;;;;10510202;28;20029;-59
2022/01/25 15:31:19;;;;;;;20.08;11.68;;;18.00;56.60;;;;;;10530366;28;20032;-58
2022/01/25 15:36:20;;;;;;;20.02;12.63;;;18.00;56.60;;;;;;10506290;28;20048;-59
2022/01/25 15:41:24;;;;;;;16.73;11.70;;;17.90;56.70;;;;;;10497634;28;20476;-58
2022/01/25 15:46:56;;;;;;;25.08;13.93;;;17.90;56.40;;;;;;10522762;28;20032;-56
2022/01/25 15:51:52;;;;;;;17.65;12.70;;;17.80;56.30;;;;;;10503528;28;20035;-57
2022/01/25 15:56:55;;;;;;;19.73;12.00;;;17.90;56.10;;;;;;10538314;28;20497;-55
2022/01/25 16:02:02;;;;;;;20.63;11.88;;;17.90;55.90;;;;;;10508860;28;20020;-57
2022/01/25 16:07:03;;;;;;;14.57;11.50;;;17.90;55.70;;;;;;10493105;28;20115;-57
2022/01/25 16:12:05;;;;;;;16.48;10.95;;;18.00;55.60;;;;;;10512967;28;20426;-56
2022/01/25 16:17:06;;;;;;;18.83;10.15;;;17.90;55.70;;;;;;10538569;28;20502;-56
2022/01/25 16:22:07;;;;;;;12.10;9.63;;;17.90;55.70;;;;;;10490723;28;20119;-55
2022/01/25 16:27:08;;;;;;;14.50;11.93;;;17.90;55.60;;;;;;10496726;28;20051;-57
2022/01/25 16:32:08;;;;;;;15.68;9.55;;;17.90;55.60;;;;;;10502526;28;20425;-57
2022/01/25 16:37:09;;;;;;;15.90;11.15;;;17.90;55.50;;;;;;10486626;28;20040;-57
2022/01/25 16:42:10;;;;;;;15.77;11.68;;;17.90;55.50;;;;;;10507036;28;20027;-57
2022/01/25 16:47:12;;;;;;;13.93;9.90;;;17.90;55.60;;;;;;10500343;28;20099;-57
2022/01/25 16:52:13;;;;;;;20.13;12.18;;;17.90;55.50;;;;;;10515195;28;20044;-60
2022/01/25 16:57:14;;;;;;;17.85;10.50;;;17.80;55.60;;;;;;10504376;28;20036;-57
2022/01/25 17:02:15;;;;;;;17.75;11.57;;;17.80;55.50;;;;;;10521963;28;20040;-58
2022/01/25 17:07:16;;;;;;;21.58;12.68;;;17.80;55.80;;;;;;10461696;28;20081;-56
2022/01/25 17:12:17;;;;;;;27.02;14.88;;;17.70;55.10;;;;;;10508832;28;20035;-57
2022/01/25 17:17:20;;;;;;;23.23;16.13;;;17.90;54.50;;;;;;10532042;28;20020;-56
2022/01/25 17:22:20;;;;;;;20.75;15.07;;;17.90;54.80;;;;;;10478536;28;20025;-60
2022/01/25 17:27:21;;;;;;;18.70;13.18;;;18.10;56.80;;;;;;10498266;28;20444;-58
2022/01/25 17:32:22;;;;;;;23.30;14.10;;;18.30;58.20;;;;;;10517869;28;20111;-60
2022/01/25 17:37:23;;;;;;;19.77;13.68;;;18.40;58.20;;;;;;10522366;28;20052;-59
2022/01/25 17:42:24;;;;;;;16.55;12.60;;;18.40;58.10;;;;;;10477959;28;20440;-60
2022/01/25 17:47:25;;;;;;;19.27;12.70;;;18.40;58.60;;;;;;10525458;28;20099;-60
2022/01/25 17:52:26;;;;;;;28.73;13.27;;;18.30;58.40;;;;;;10500507;28;20040;-60
2022/01/25 17:57:27;;;;;;;22.15;12.68;;;18.20;58.60;;;;;;10523549;28;20545;-60
2022/01/25 18:02:30;;;;;;;25.83;12.27;;;18.20;59.70;;;;;;10504668;28;20124;-60
2022/01/25 18:07:31;;;;;;;23.48;12.73;;;18.10;58.10;;;;;;10539069;28;20105;-59
2022/01/25 18:12:32;;;;;;;19.65;12.35;;;18.00;58.10;;;;;;10516041;28;20032;-59
2022/01/25 18:17:34;;;;;;;20.67;12.00;;;17.90;58.10;;;;;;10505315;28;20036;-59
2022/01/25 18:22:46;;;;;;;17.02;11.15;;;17.80;58.70;;;;;;10512555;28;20031;-59
2022/01/25 18:27:46;;;;;;;17.45;11.63;;;17.90;58.80;;;;;;10532040;28;20036;-60
2022/01/25 18:32:47;;;;;;;15.63;10.98;;;17.90;59.20;;;;;;10490156;28;20540;-61
2022/01/25 18:37:48;;;;;;;14.55;11.00;;;17.90;59.30;;;;;;10507073;28;20119;-58
2022/01/25 18:42:49;;;;;;;12.00;10.00;;;17.80;59.20;;;;;;10522143;28;20115;-58
2022/01/25 18:47:50;;;;;;;20.17;10.70;;;18.00;58.80;;;;;;10539859;28;20047;-57
2022/01/25 18:52:51;;;;;;;16.02;9.57;;;18.00;58.80;;;;;;10510755;28;20081;-59
2022/01/25 18:57:52;;;;;;;15.38;10.93;;;18.00;58.70;;;;;;10520307;28;20028;-59
2022/01/25 19:02:55;;;;;;;14.38;9.75;;;17.90;58.70;;;;;;10539089;28;20024;-60
2022/01/25 19:07:56;;;;;;;14.70;10.65;;;17.80;58.80;;;;;;10540562;28;20022;-57
2022/01/25 19:12:57;;;;;;;13.82;10.30;;;17.80;59.10;;;;;;10484099;28;20040;-59
2022/01/25 19:17:58;;;;;;;14.52;10.63;;;17.70;59.20;;;;;;10487051;28;20364;-58
2022/01/25 19:22:59;;;;;;;14.35;11.05;;;17.80;59.10;;;;;;10518040;28;20035;-59
2022/01/25 19:28:00;;;;;;;14.90;9.48;;;17.80;59.00;;;;;;10505174;28;20024;-58
2022/01/25 19:33:03;;;;;;;11.38;9.35;;;17.80;59.30;;;;;;10518037;28;20036;-57
2022/01/25 19:38:07;;;;;;;18.10;10.60;;;17.90;59.20;;;;;;10536864;28;20085;-58
2022/01/25 19:43:12;;;;;;;15.35;10.45;;;17.90;59.10;;;;;;10511559;28;20020;-59
2022/01/25 19:48:15;;;;;;;14.55;11.63;;;17.80;59.10;;;;;;10508583;28;20083;-57
2022/01/25 19:53:20;;;;;;;16.40;10.85;;;17.80;59.30;;;;;;10490479;28;20503;-57
2022/01/25 19:58:21;;;;;;;12.57;9.07;;;17.80;59.50;;;;;;10528119;28;20123;-58
2022/01/25 20:03:22;;;;;;;14.43;10.50;;;17.80;59.50;;;;;;10511492;28;20066;-56
2022/01/25 20:08:25;;;;;;;11.55;10.05;;;17.70;59.40;;;;;;10518016;28;20040;-58
2022/01/25 20:13:26;;;;;;;15.73;10.23;;;17.60;59.30;;;;;;10491695;28;20032;-58
2022/01/25 20:18:30;;;;;;;15.10;10.02;;;17.70;59.10;;;;;;10480233;28;20546;-57
2022/01/25 20:23:36;;;;;;;13.13;10.73;;;17.70;58.60;;;;;;10489263;28;20029;-58
2022/01/25 20:28:40;;;;;;;14.07;11.00;;;17.70;58.20;;;;;;10525672;28;20539;-58
2022/01/25 20:33:46;;;;;;;11.50;10.10;;;17.80;58.00;;;;;;10490144;28;20503;-58
2022/01/25 20:38:49;;;;;;;15.70;11.38;;;17.80;57.80;;;;;;10484909;28;20469;-59
2022/01/25 20:43:53;;;;;;;14.13;10.38;;;17.80;57.70;;;;;;10492645;28;20024;-58
2022/01/25 20:48:54;;;;;;;13.02;10.60;;;17.70;57.60;;;;;;10502523;28;20038;-58
2022/01/25 20:53:54;;;;;;;13.02;10.20;;;17.70;57.30;;;;;;10503552;28;20028;-58
2022/01/25 20:58:57;;;;;;;12.50;10.80;;;17.70;57.30;;;;;;10467297;28;20364;-57
2022/01/25 21:09:18;;;;;;;13.95;10.52;;;17.70;56.90;;;;;;10515826;28;20036;-58
2022/01/25 21:14:20;;;;;;;12.20;10.48;;;17.70;56.90;;;;;;10479352;28;20067;-59
2022/01/25 21:19:22;;;;;;;12.88;9.80;;;17.80;56.80;;;;;;10479981;28;20108;-58
2022/01/25 21:24:22;;;;;;;13.48;11.45;;;17.70;56.60;;;;;;10528499;28;20143;-58
2022/01/25 21:29:24;;;;;;;13.73;10.48;;;17.70;57.20;;;;;;10510034;28;20032;-57
2022/01/25 21:34:25;;;;;;;12.88;11.02;;;17.70;56.30;;;;;;10499862;28;20036;-58
2022/01/25 21:39:25;;;;;;;13.30;10.98;;;17.70;57.00;;;;;;10507873;28;20036;-58
2022/01/25 21:44:26;;;;;;;13.35;10.90;;;17.70;56.30;;;;;;10516211;28;20043;-58
2022/01/25 21:49:27;;;;;;;13.57;9.88;;;17.70;56.50;;;;;;10510271;28;20028;-58
2022/01/25 21:54:28;;;;;;;12.65;10.20;;;17.80;56.10;;;;;;10496581;28;20111;-58
2022/01/25 21:59:29;;;;;;;15.02;10.32;;;17.80;56.00;;;;;;10505434;28;20033;-58
2022/01/25 22:04:33;;;;;;;11.18;9.13;;;17.80;55.80;;;;;;10513472;28;20097;-58
2022/01/25 22:09:37;;;;;;;11.93;10.02;;;17.90;55.50;;;;;;10514790;28;20442;-58
2022/01/25 22:14:42;;;;;;;13.07;10.50;;;17.90;55.40;;;;;;10502757;28;20020;-58
2022/01/25 22:19:43;;;;;;;12.57;10.70;;;17.90;55.40;;;;;;10541099;28;20128;-58
2022/01/25 22:24:43;;;;;;;13.45;10.88;;;17.80;55.30;;;;;;10485096;28;20120;-59
2022/01/25 22:29:44;;;;;;;13.27;10.40;;;17.80;55.20;;;;;;10482965;28;20043;-58
2022/01/25 22:34:45;;;;;;;11.68;10.23;;;17.80;55.20;;;;;;10517399;28;20048;-59
2022/01/25 22:39:45;;;;;;;13.38;10.48;;;17.80;55.00;;;;;;10509415;28;20090;-58
2022/01/25 22:44:52;;;;;;;12.70;11.27;;;17.80;54.90;;;;;;10500499;28;20115;-58
2022/01/25 22:49:53;;;;;;;11.43;10.20;;;17.90;54.80;;;;;;10511836;28;20076;-57
2022/01/25 22:54:54;;;;;;;12.40;10.20;;;17.90;54.90;;;;;;10527888;28;20460;-58
2022/01/25 22:59:55;;;;;;;10.80;9.18;;;18.00;54.70;;;;;;10503838;28;20377;-58
2022/01/25 23:04:57;;;;;;;11.05;9.45;;;18.00;54.60;;;;;;10506085;28;20365;-57
2022/01/25 23:09:59;;;;;;;10.85;9.57;;;18.00;54.40;;;;;;10493521;28;20353;-57
2022/01/25 23:15:02;;;;;;;11.80;10.18;;;17.90;54.50;;;;;;10495448;28;20480;-57
2022/01/25 23:20:16;;;;;;;12.98;10.13;;;18.00;54.40;;;;;;10510004;28;20066;-56
2022/01/25 23:25:20;;;;;;;11.73;9.60;;;17.90;54.40;;;;;;10500124;28;20028;-58
2022/01/25 23:30:32;;;;;;;12.88;10.75;;;17.90;54.30;;;;;;10478925;28;20078;-58
2022/01/25 23:35:41;;;;;;;11.02;9.48;;;17.90;54.30;;;;;;10502005;28;20050;-58
2022/01/25 23:45:53;;;;;;;11.45;9.23;;;17.90;54.20;;;;;;10538554;28;20372;-59
